Time;durP1;ratioP1;P1;durP2;ratioP2;P2;SDS_P1;SDS_P2;PMS_P1;PMS_P2;Temp;Humidity;BMP_temperature;BMP_pressure;BME280_temperature;BME280_humidity;BME280_pressure;Samples;Min_cycle;Max_cycle;Signal;HPM_P1;HPM_P2
2022/01/01 00:02:25;;;;;;;;;;;;;;;5.22;100.00;100668.78;5596454;31;33562;-84
2022/01/01 00:05:44;;;;;;;;;;;;;;;5.64;100.00;100684.47;5597218;31;33428;-84
2022/01/01 00:08:46;;;;;;;;;;;;;;;5.86;100.00;100699.66;5596348;31;34165;-84
2022/01/01 00:11:53;;;;;;;;;;;;;;;6.17;100.00;100713.41;5596647;31;33479;-84
2022/01/01 00:14:55;;;;;;;;;;;;;;;6.22;100.00;100699.97;5596699;31;33724;-84
2022/01/01 00:17:58;;;;;;;;;;;;;;;6.41;100.00;100683.81;5596149;31;33663;-84
2022/01/01 00:21:01;;;;;;;;;;;;;;;6.33;100.00;100675.59;5598153;31;34022;-85
2022/01/01 00:24:08;;;;;;;;;;;;;;;6.14;100.00;100674.22;5597393;31;33488;-84
2022/01/01 00:27:11;;;;;;;;;;;;;;;5.97;100.00;100677.09;5596962;31;33440;-84
2022/01/01 00:30:13;;;;;;;;;;;;;;;5.85;100.00;100655.13;5597151;31;33510;-84
2022/01/01 00:33:16;;;;;;;;;;;;;;;5.81;100.00;100659.72;5599573;31;34263;-84
2022/01/01 00:36:21;;;;;;;;;;;;;;;5.84;100.00;100659.53;5600523;31;33473;-84
2022/01/01 00:39:23;;;;;;;;;;;;;;;5.82;100.00;100666.66;5596555;31;33768;-84
2022/01/01 00:42:26;;;;;;;;;;;;;;;5.66;100.00;100672.09;5595719;31;34018;-84
2022/01/01 00:45:49;;;;;;;;;;;;;;;5.52;100.00;100670.38;5599780;31;32952;-84
2022/01/01 00:48:53;;;;;;;;;;;;;;;5.41;100.00;100657.09;5596789;31;33406;-84
2022/01/01 00:52:01;;;;;;;;;;;;;;;5.32;100.00;100673.44;5596662;31;34237;-84
2022/01/01 00:55:06;;;;;;;;;;;;;;;5.07;100.00;100680.22;5600319;31;33357;-84
2022/01/01 00:58:10;;;;;;;;;;;;;;;5.04;100.00;100669.94;5596123;31;35025;-84
2022/01/01 01:01:12;;;;;;;;;;;;;;;4.86;100.00;100678.00;5598245;31;33784;-84
2022/01/01 01:04:16;;;;;;;;;;;;;;;4.78;100.00;100675.03;5597654;31;33735;-84
2022/01/01 01:07:18;;;;;;;;;;;;;;;4.73;100.00;100682.31;5596580;31;33911;-84
2022/01/01 01:10:21;;;;;;;;;;;;;;;4.74;100.00;100669.12;5594460;31;34730;-84
2022/01/01 01:13:26;;;;;;;;;;;;;;;4.68;100.00;100680.00;5596650;31;33423;-84
2022/01/01 01:16:29;;;;;;;;;;;;;;;4.59;100.00;100675.31;5568204;31;844802;-84
2022/01/01 01:19:31;;;;;;;;;;;;;;;4.52;100.00;100680.09;5594931;31;34199;-84
2022/01/01 01:22:34;;;;;;;;;;;;;;;4.50;100.00;100681.13;5581021;31;34104;-84
2022/01/01 01:25:41;;;;;;;;;;;;;;;4.39;100.00;100679.12;5596249;31;34190;-83
2022/01/01 01:28:48;;;;;;;;;;;;;;;4.40;100.00;100670.34;5595940;31;33777;-84
2022/01/01 01:31:51;;;;;;;;;;;;;;;4.28;100.00;100678.00;5595329;31;34257;-84
2022/01/01 01:34:53;;;;;;;;;;;;;;;4.26;100.00;100685.09;5596051;31;32407;-84
2022/01/01 01:37:56;;;;;;;;;;;;;;;4.23;100.00;100679.19;5595271;31;33679;-84
2022/01/01 01:41:01;;;;;;;;;;;;;;;4.31;100.00;100680.44;5595415;31;33766;-84
2022/01/01 01:44:21;;;;;;;;;;;;;;;4.42;100.00;100684.19;5594638;31;33149;-84
2022/01/01 01:47:32;;;;;;;;;;;;;;;4.57;100.00;100682.41;5594931;31;33493;-84
2022/01/01 01:50:37;;;;;;;;;;;;;;;4.92;100.00;100676.78;5595088;31;33542;-84
2022/01/01 01:53:40;;;;;;;;;;;;;;;5.19;100.00;100675.97;5594321;31;34390;-84
2022/01/01 01:56:44;;;;;;;;;;;;;;;5.39;100.00;100680.81;5597381;31;33653;-84
2022/01/01 01:59:47;;;;;;;;;;;;;;;5.82;100.00;100674.53;5595469;31;34970;-83
2022/01/01 02:02:50;;;;;;;;;;;;;;;5.99;100.00;100683.09;5595366;31;33814;-84
2022/01/01 02:05:53;;;;;;;;;;;;;;;6.41;100.00;100683.81;5595313;31;33767;-82
2022/01/01 02:08:56;;;;;;;;;;;;;;;6.93;100.00;100694.25;5595303;31;33103;-82
2022/01/01 02:11:59;;;;;;;;;;;;;;;7.02;100.00;100696.28;5595802;31;33742;-82
2022/01/01 02:15:11;;;;;;;;;;;;;;;7.14;100.00;100693.72;5599013;31;34068;-82
2022/01/01 02:18:16;;;;;;;;;;;;;;;7.18;100.00;100693.38;5597412;31;33791;-82
2022/01/01 02:21:22;;;;;;;;;;;;;;;7.14;100.00;100691.09;5595894;31;33520;-83
2022/01/01 02:24:27;;;;;;;;;;;;;;;7.17;100.00;100698.75;5595741;31;33772;-82
2022/01/01 02:27:36;;;;;;;;;;;;;;;7.29;100.00;100684.72;5595459;31;34685;-83
2022/01/01 02:30:39;;;;;;;;;;;;;;;7.21;100.00;100681.78;5596136;31;34107;-82
2022/01/01 02:33:42;;;;;;;;;;;;;;;7.36;100.00;100680.72;5595078;31;34240;-83
2022/01/01 02:36:45;;;;;;;;;;;;;;;7.59;100.00;100675.56;5594058;31;33846;-83
2022/01/01 02:39:49;;;;;;;;;;;;;;;7.73;100.00;100680.63;5594469;31;34028;-82
2022/01/01 02:42:53;;;;;;;;;;;;;;;7.72;100.00;100678.94;5595932;31;33598;-83
2022/01/01 02:45:58;;;;;;;;;;;;;;;7.97;100.00;100685.03;5596207;31;34127;-83
2022/01/01 02:49:02;;;;;;;;;;;;;;;8.06;100.00;100677.37;5595486;31;34224;-83
2022/01/01 02:52:05;;;;;;;;;;;;;;;8.09;100.00;100690.31;5595871;31;34132;-83
2022/01/01 02:55:08;;;;;;;;;;;;;;;8.28;100.00;100687.16;5595571;31;33150;-83
2022/01/01 02:58:12;;;;;;;;;;;;;;;8.18;100.00;100694.91;5597146;31;34046;-83
2022/01/01 03:01:14;;;;;;;;;;;;;;;8.23;100.00;100687.50;5595280;31;34229;-83
2022/01/01 03:04:17;;;;;;;;;;;;;;;8.27;100.00;100683.69;5595566;31;34087;-84
2022/01/01 03:07:20;;;;;;;;;;;;;;;8.30;100.00;100675.50;5596706;31;34449;-83
2022/01/01 03:10:28;;;;;;;;;;;;;;;8.49;100.00;100674.16;5597702;31;34247;-83
2022/01/01 03:13:30;;;;;;;;;;;;;;;8.57;100.00;100669.12;5597125;31;33452;-83
2022/01/01 03:16:33;;;;;;;;;;;;;;;8.52;100.00;100667.78;5596814;31;33618;-83
2022/01/01 03:19:35;;;;;;;;;;;;;;;8.68;100.00;100667.44;5595300;31;33934;-83
2022/01/01 03:22:38;;;;;;;;;;;;;;;8.58;100.00;100681.34;5598317;31;33865;-83
2022/01/01 03:25:40;;;;;;;;;;;;;;;8.73;100.00;100684.59;5597179;31;33699;-83
2022/01/01 03:28:43;;;;;;;;;;;;;;;8.81;100.00;100684.00;5595011;31;34126;-85
2022/01/01 03:31:53;;;;;;;;;;;;;;;8.90;100.00;100688.53;5595954;31;33594;-84
2022/01/01 03:34:56;;;;;;;;;;;;;;;8.95;100.00;100689.00;5596722;31;34175;-85
2022/01/01 03:37:58;;;;;;;;;;;;;;;9.06;100.00;100695.25;5596776;31;33826;-85
2022/01/01 03:41:03;;;;;;;;;;;;;;;9.08;100.00;100709.16;5596346;31;33853;-85
2022/01/01 03:44:06;;;;;;;;;;;;;;;9.10;100.00;100699.31;5597351;31;33521;-83
2022/01/01 03:47:11;;;;;;;;;;;;;;;9.16;100.00;100714.69;5597979;31;33398;-84
2022/01/01 03:50:18;;;;;;;;;;;;;;;9.31;100.00;100702.03;5597935;31;33741;-85
2022/01/01 03:53:24;;;;;;;;;;;;;;;9.19;100.00;100706.50;5597841;31;33869;-84
2022/01/01 03:56:27;;;;;;;;;;;;;;;9.19;100.00;100703.84;5598040;31;33785;-85
2022/01/01 03:59:33;;;;;;;;;;;;;;;9.20;100.00;100708.16;5597892;31;33576;-84
2022/01/01 04:02:37;;;;;;;;;;;;;;;9.17;100.00;100726.91;5597861;31;34360;-85
2022/01/01 04:05:41;;;;;;;;;;;;;;;9.21;100.00;100719.59;5598640;31;34223;-86
2022/01/01 04:08:46;;;;;;;;;;;;;;;9.20;100.00;100731.09;5598135;31;33684;-84
2022/01/01 04:11:51;;;;;;;;;;;;;;;9.14;100.00;100721.87;5596985;31;34350;-84
2022/01/01 04:14:53;;;;;;;;;;;;;;;9.17;100.00;100711.06;5598231;31;33267;-83
2022/01/01 04:18:01;;;;;;;;;;;;;;;9.30;100.00;100712.72;5598912;31;33778;-83
2022/01/01 04:21:10;;;;;;;;;;;;;;;9.32;100.00;100724.00;5599975;31;34198;-83
2022/01/01 04:24:13;;;;;;;;;;;;;;;9.29;100.00;100718.97;5598955;31;34166;-83
2022/01/01 04:27:16;;;;;;;;;;;;;;;9.25;100.00;100718.37;5599039;31;33539;-83
2022/01/01 04:30:21;;;;;;;;;;;;;;;9.16;100.00;100730.50;5598092;31;33190;-83
2022/01/01 04:33:27;;;;;;;;;;;;;;;9.13;100.00;100728.09;5598486;31;33986;-83
2022/01/01 04:36:29;;;;;;;;;;;;;;;9.04;100.00;100724.38;5599663;31;34719;-83
2022/01/01 04:39:32;;;;;;;;;;;;;;;9.10;100.00;100734.47;5599169;31;34462;-83
2022/01/01 04:42:35;;;;;;;;;;;;;;;9.21;100.00;100709.84;5599919;31;33494;-82
2022/01/01 04:45:37;;;;;;;;;;;;;;;9.31;100.00;100722.31;5598553;31;33772;-83
2022/01/01 04:48:40;;;;;;;;;;;;;;;9.39;100.00;100725.19;5598266;31;33381;-83
2022/01/01 04:51:49;;;;;;;;;;;;;;;9.29;100.00;100724.25;5599003;31;33679;-85
2022/01/01 04:54:54;;;;;;;;;;;;;;;9.48;100.00;100716.53;5597898;31;34014;-85
2022/01/01 04:57:56;;;;;;;;;;;;;;;9.45;100.00;100719.41;5598337;31;33664;-84
2022/01/01 05:01:03;;;;;;;;;;;;;;;9.43;100.00;100716.06;5598914;31;33705;-83
2022/01/01 05:04:06;;;;;;;;;;;;;;;9.45;100.00;100711.50;5598144;31;34744;-81
2022/01/01 05:07:11;;;;;;;;;;;;;;;9.56;100.00;100708.81;5598287;31;34418;-83
2022/01/01 05:10:14;;;;;;;;;;;;;;;9.57;100.00;100723.72;5598338;31;33305;-83
2022/01/01 05:13:19;;;;;;;;;;;;;;;9.78;100.00;100725.56;5598836;31;34212;-83
2022/01/01 05:16:21;;;;;;;;;;;;;;;9.87;100.00;100714.22;5597903;31;33817;-83
2022/01/01 05:19:27;;;;;;;;;;;;;;;9.86;100.00;100715.19;5600060;31;33694;-83
2022/01/01 05:22:29;;;;;;;;;;;;;;;9.84;100.00;100729.50;5601550;31;33886;-84
2022/01/01 05:25:32;;;;;;;;;;;;;;;9.98;100.00;100725.72;5601199;31;34033;-84
2022/01/01 05:28:37;;;;;;;;;;;;;;;9.93;100.00;100715.53;5598476;31;34207;-83
2022/01/01 05:31:40;;;;;;;;;;;;;;;10.02;100.00;100711.28;5599413;31;33700;-83
2022/01/01 05:34:42;;;;;;;;;;;;;;;10.08;100.00;100717.88;5599366;31;33985;-84
2022/01/01 05:37:48;;;;;;;;;;;;;;;10.07;100.00;100718.84;5599205;31;34477;-83
2022/01/01 05:40:51;;;;;;;;;;;;;;;10.13;100.00;100713.88;5598153;31;34562;-84
2022/01/01 05:43:53;;;;;;;;;;;;;;;10.14;100.00;100725.28;5598955;31;33712;-83
2022/01/01 05:46:56;;;;;;;;;;;;;;;10.13;100.00;100719.16;5598954;31;33818;-84
2022/01/01 05:49:59;;;;;;;;;;;;;;;10.17;100.00;100736.47;5599284;31;33573;-83
2022/01/01 05:53:08;;;;;;;;;;;;;;;10.18;100.00;100732.00;5597579;31;33531;-83
2022/01/01 05:56:10;;;;;;;;;;;;;;;10.14;100.00;100736.72;5597728;31;33799;-84
2022/01/01 05:59:13;;;;;;;;;;;;;;;10.18;100.00;100738.13;5599360;31;34058;-84
2022/01/01 06:02:16;;;;;;;;;;;;;;;10.23;100.00;100747.47;5599397;31;33630;-84
2022/01/01 06:05:24;;;;;;;;;;;;;;;10.29;100.00;100746.97;5598389;31;33949;-84
2022/01/01 06:08:28;;;;;;;;;;;;;;;10.15;100.00;100759.53;5600870;31;33715;-84
2022/01/01 06:11:31;;;;;;;;;;;;;;;10.07;100.00;100758.47;5599336;31;33793;-83
2022/01/01 06:14:33;;;;;;;;;;;;;;;10.05;100.00;100763.91;5598663;31;34489;-84
2022/01/01 06:17:36;;;;;;;;;;;;;;;10.03;100.00;100779.87;5598858;31;33694;-84
2022/01/01 06:20:42;;;;;;;;;;;;;;;10.04;100.00;100770.16;5600029;31;33418;-84
2022/01/01 06:23:45;;;;;;;;;;;;;;;10.03;100.00;100765.84;5599273;31;33843;-84
2022/01/01 06:26:48;;;;;;;;;;;;;;;10.04;100.00;100773.63;5599716;31;34562;-83
2022/01/01 06:29:51;;;;;;;;;;;;;;;10.12;100.00;100780.94;5598071;31;33215;-87
2022/01/01 06:32:55;;;;;;;;;;;;;;;9.97;100.00;100790.09;5598476;31;33684;-84
2022/01/01 06:36:00;;;;;;;;;;;;;;;10.03;100.00;100802.84;5599756;31;34033;-85
2022/01/01 06:39:03;;;;;;;;;;;;;;;10.14;100.00;100800.16;5601567;31;33800;-84
2022/01/01 06:42:08;;;;;;;;;;;;;;;10.03;100.00;100797.56;5599873;31;34742;-84
2022/01/01 06:45:11;;;;;;;;;;;;;;;10.01;100.00;100810.06;5601066;31;34153;-84
2022/01/01 06:48:15;;;;;;;;;;;;;;;9.96;100.00;100807.78;5605768;31;34688;-83
2022/01/01 06:51:17;;;;;;;;;;;;;;;9.92;100.00;100822.19;5607074;31;34812;-84
2022/01/01 06:54:20;;;;;;;;;;;;;;;9.78;100.00;100831.25;5602373;31;33389;-84
2022/01/01 06:57:23;;;;;;;;;;;;;;;9.72;100.00;100829.94;5598362;31;33061;-84
2022/01/01 07:00:25;;;;;;;;;;;;;;;9.74;100.00;100840.37;5598207;31;32323;-84
2022/01/01 07:03:28;;;;;;;;;;;;;;;9.72;100.00;100837.88;5597747;31;33821;-84
2022/01/01 07:06:33;;;;;;;;;;;;;;;9.66;100.00;100845.44;5597301;31;33948;-83
2022/01/01 07:09:36;;;;;;;;;;;;;;;9.55;100.00;100847.13;5597104;31;33321;-84
2022/01/01 07:12:41;;;;;;;;;;;;;;;9.80;100.00;100845.19;5595928;31;33447;-85
2022/01/01 07:15:43;;;;;;;;;;;;;;;9.97;100.00;100850.91;5595531;31;33607;-83
2022/01/01 07:18:48;;;;;;;;;;;;;;;9.93;100.00;100854.78;5596577;31;33593;-86
2022/01/01 07:21:51;;;;;;;;;;;;;;;9.89;100.00;100860.31;5597261;31;34149;-83
2022/01/01 07:24:53;;;;;;;;;;;;;;;9.77;100.00;100856.00;5598203;31;33705;-84
2022/01/01 07:27:56;;;;;;;;;;;;;;;9.85;100.00;100858.84;5599801;31;34348;-84
2022/01/01 07:30:58;;;;;;;;;;;;;;;10.00;100.00;100863.87;5600635;31;33813;-86
2022/01/01 07:34:01;;;;;;;;;;;;;;;10.02;100.00;100868.06;5599295;31;33101;-85
2022/01/01 07:37:04;;;;;;;;;;;;;;;10.10;100.00;100893.91;5599835;31;34600;-84
2022/01/01 07:40:11;;;;;;;;;;;;;;;10.18;100.00;100886.22;5599162;31;34003;-84
2022/01/01 07:43:17;;;;;;;;;;;;;;;9.99;100.00;100888.63;5600185;31;33690;-85
2022/01/01 07:46:20;;;;;;;;;;;;;;;10.04;100.00;100883.81;5601947;31;34315;-84
2022/01/01 07:49:23;;;;;;;;;;;;;;;10.07;100.00;100909.16;5597491;31;34272;-84
2022/01/01 07:52:26;;;;;;;;;;;;;;;9.93;100.00;100918.22;5600213;31;33638;-85
2022/01/01 07:55:28;;;;;;;;;;;;;;;10.08;100.00;100922.25;5599191;31;33608;-84
2022/01/01 07:58:31;;;;;;;;;;;;;;;10.12;100.00;100923.69;5598856;31;33907;-85
2022/01/01 08:01:35;;;;;;;;;;;;;;;10.06;100.00;100929.50;5600526;31;33900;-85
2022/01/01 08:04:39;;;;;;;;;;;;;;;10.32;100.00;100929.19;5600228;31;34180;-86
2022/01/01 08:07:45;;;;;;;;;;;;;;;10.34;100.00;100927.25;5599230;31;34089;-84
2022/01/01 08:11:04;;;;;;;;;;;;;;;10.39;100.00;100925.13;5598136;31;33179;-84
2022/01/01 08:14:07;;;;;;;;;;;;;;;10.43;100.00;100947.69;5597876;31;33593;-84
2022/01/01 08:17:09;;;;;;;;;;;;;;;10.50;100.00;100934.81;5600307;31;34554;-85
2022/01/01 08:20:12;;;;;;;;;;;;;;;10.48;100.00;100929.66;5598987;31;34599;-85
2022/01/01 08:23:15;;;;;;;;;;;;;;;10.48;100.00;100929.66;5601064;31;33714;-85
2022/01/01 08:26:18;;;;;;;;;;;;;;;10.47;100.00;100938.56;5598059;31;33995;-84
2022/01/01 08:29:20;;;;;;;;;;;;;;;10.48;100.00;100945.53;5597632;31;34289;-86
2022/01/01 08:32:23;;;;;;;;;;;;;;;10.57;100.00;100948.38;5599520;31;34638;-85
2022/01/01 08:35:27;;;;;;;;;;;;;;;10.61;100.00;100955.13;5599848;31;33613;-85
2022/01/01 08:38:31;;;;;;;;;;;;;;;10.69;100.00;100951.84;5599924;31;33782;-84
2022/01/01 08:41:34;;;;;;;;;;;;;;;10.74;100.00;100955.78;5599990;31;34347;-84
2022/01/01 08:44:36;;;;;;;;;;;;;;;10.79;100.00;100953.59;5599919;31;34011;-84
2022/01/01 08:47:40;;;;;;;;;;;;;;;10.80;100.00;100954.44;5600723;31;33776;-85
2022/01/01 08:50:43;;;;;;;;;;;;;;;10.82;100.00;100949.84;5597849;31;34442;-84
2022/01/01 08:53:47;;;;;;;;;;;;;;;10.99;100.00;100952.91;5599007;31;34505;-84
2022/01/01 08:56:50;;;;;;;;;;;;;;;10.90;100.00;100951.87;5598822;31;33309;-84
2022/01/01 09:00:11;;;;;;;;;;;;;;;10.94;100.00;100961.25;5597840;31;33936;-84
2022/01/01 09:03:14;;;;;;;;;;;;;;;11.05;100.00;100979.72;5599991;31;34109;-85
2022/01/01 09:06:18;;;;;;;;;;;;;;;11.13;100.00;100976.44;5599434;31;34985;-84
2022/01/01 09:09:23;;;;;;;;;;;;;;;11.28;100.00;100974.31;5602298;31;33712;-84
2022/01/01 09:12:29;;;;;;;;;;;;;;;11.43;99.66;100996.00;5601719;31;34036;-84
2022/01/01 09:15:31;;;;;;;;;;;;;;;11.35;99.64;100995.81;5598115;31;34783;-84
2022/01/01 09:18:34;;;;;;;;;;;;;;;11.35;99.71;100999.28;5599052;31;36093;-85
2022/01/01 09:21:36;;;;;;;;;;;;;;;11.35;99.83;101001.94;5598057;31;34131;-84
2022/01/01 09:24:42;;;;;;;;;;;;;;;11.28;99.92;101000.78;5600640;31;34028;-84
2022/01/01 09:27:44;;;;;;;;;;;;;;;11.12;100.00;101001.22;5600635;31;34039;-85
2022/01/01 09:30:47;;;;;;;;;;;;;;;11.08;100.00;101000.66;5599282;31;34412;-84
2022/01/01 09:33:49;;;;;;;;;;;;;;;11.06;100.00;101013.19;5598507;31;33767;-84
2022/01/01 09:36:54;;;;;;;;;;;;;;;10.97;100.00;100996.25;5598381;31;33671;-85
2022/01/01 09:39:56;;;;;;;;;;;;;;;10.85;100.00;100993.78;5600811;31;34724;-84
2022/01/01 09:42:59;;;;;;;;;;;;;;;10.71;100.00;100987.78;5601548;31;34440;-85
2022/01/01 09:46:01;;;;;;;;;;;;;;;10.77;100.00;101000.50;5597976;31;34923;-84
2022/01/01 09:49:04;;;;;;;;;;;;;;;10.92;100.00;100995.75;5597003;31;34227;-84
2022/01/01 09:52:12;;;;;;;;;;;;;;;10.97;100.00;100992.75;5599626;31;33701;-84
2022/01/01 09:55:18;;;;;;;;;;;;;;;10.88;100.00;100988.19;5598905;31;33706;-84
2022/01/01 09:58:23;;;;;;;;;;;;;;;10.85;100.00;100985.84;5605989;31;34714;-85
2022/01/01 10:01:26;;;;;;;;;;;;;;;10.72;100.00;100984.19;5601709;31;34718;-83
2022/01/01 10:04:39;;;;;;;;;;;;;;;10.84;100.00;100984.16;5597102;31;33855;-85
2022/01/01 10:07:49;;;;;;;;;;;;;;;10.78;100.00;100983.66;5599101;31;34145;-85
2022/01/01 10:10:54;;;;;;;;;;;;;;;10.81;100.00;101015.19;5600486;31;34751;-85
2022/01/01 10:13:57;;;;;;;;;;;;;;;10.83;100.00;101007.09;5596946;31;33558;-84
2022/01/01 10:16:59;;;;;;;;;;;;;;;10.90;100.00;101007.44;5597318;31;33920;-84
2022/01/01 10:20:03;;;;;;;;;;;;;;;10.86;100.00;101001.56;5597611;31;33012;-85
2022/01/01 10:23:14;;;;;;;;;;;;;;;10.88;100.00;101009.38;5598907;31;33485;-85
2022/01/01 10:29:46;;;;;;;;;;;;;;;11.28;100.00;100990.19;5600793;31;34106;-84
2022/01/01 10:33:04;;;;;;;;;;;;;;;11.36;100.00;100993.03;5600398;31;33898;-84
2022/01/01 10:36:07;;;;;;;;;;;;;;;11.53;98.94;101009.31;5599720;31;33655;-84
2022/01/01 10:39:11;;;;;;;;;;;;;;;11.61;98.20;101012.16;5598567;31;33764;-84
2022/01/01 10:42:13;;;;;;;;;;;;;;;11.74;97.53;101023.41;5599928;31;34467;-85
2022/01/01 10:45:27;;;;;;;;;;;;;;;11.79;96.94;101030.09;5599108;31;34123;-85
2022/01/01 10:51:39;;;;;;;;;;;;;;;11.92;95.86;101028.06;5597898;31;34809;-84
2022/01/01 10:54:48;;;;;;;;;;;;;;;12.02;96.14;101036.94;5597238;31;33956;-84
2022/01/01 10:57:58;;;;;;;;;;;;;;;12.16;94.73;101026.97;5599969;31;34162;-84
2022/01/01 11:01:02;;;;;;;;;;;;;;;12.22;93.98;101034.38;5600582;31;34042;-84
2022/01/01 11:04:07;;;;;;;;;;;;;;;12.26;94.30;101027.81;5600167;31;33666;-84
2022/01/01 11:07:09;;;;;;;;;;;;;;;12.11;94.33;101018.53;5600330;31;33911;-84
2022/01/01 11:10:17;;;;;;;;;;;;;;;12.00;95.14;101033.59;5600973;31;33634;-85
2022/01/01 11:13:26;;;;;;;;;;;;;;;12.16;94.59;101037.56;5598651;31;33746;-84
2022/01/01 11:16:28;;;;;;;;;;;;;;;12.30;93.59;101039.88;5601194;31;33863;-84
2022/01/01 11:19:32;;;;;;;;;;;;;;;12.17;94.22;101023.34;5599879;31;34145;-84
2022/01/01 11:22:35;;;;;;;;;;;;;;;12.17;94.41;101010.06;5602533;31;33576;-83
2022/01/01 11:25:45;;;;;;;;;;;;;;;12.11;94.19;101029.16;5601908;31;33922;-85
2022/01/01 11:28:49;;;;;;;;;;;;;;;12.07;94.28;101028.59;5602415;31;33829;-84
2022/01/01 11:31:57;;;;;;;;;;;;;;;12.12;94.72;101031.69;5602644;31;34182;-84
2022/01/01 11:35:01;;;;;;;;;;;;;;;12.13;93.84;101021.91;5602489;31;34118;-84
2022/01/01 11:38:13;;;;;;;;;;;;;;;12.12;94.66;101020.22;5600112;31;34031;-84
2022/01/01 11:41:19;;;;;;;;;;;;;;;12.20;93.81;101018.59;5602795;31;33921;-85
2022/01/01 11:44:25;;;;;;;;;;;;;;;12.05;94.51;101034.03;5604766;31;33270;-84
2022/01/01 11:47:28;;;;;;;;;;;;;;;12.01;94.33;101035.25;5600322;31;33839;-84
2022/01/01 11:50:43;;;;;;;;;;;;;;;11.94;94.87;101044.69;5601800;31;33528;-84
2022/01/01 11:54:04;;;;;;;;;;;;;;;12.03;94.60;101054.53;5601243;31;34887;-85
2022/01/01 11:57:10;;;;;;;;;;;;;;;12.35;93.57;101064.16;5598469;31;33753;-85
2022/01/01 12:00:13;;;;;;;;;;;;;;;12.64;91.05;101052.81;5603138;31;34531;-84
2022/01/01 12:03:22;;;;;;;;;;;;;;;12.57;91.58;101056.97;5601340;31;34769;-84
2022/01/01 12:06:28;;;;;;;;;;;;;;;12.46;92.94;101057.06;5598689;31;36016;-84
2022/01/01 12:09:46;;;;;;;;;;;;;;;12.69;90.55;101059.50;5598493;31;36190;-85
2022/01/01 12:12:56;;;;;;;;;;;;;;;12.73;90.75;101060.91;5599918;31;34121;-84
2022/01/01 12:15:59;;;;;;;;;;;;;;;12.61;91.32;101066.34;5600508;31;34057;-86
2022/01/01 12:19:06;;;;;;;;;;;;;;;12.49;91.48;101070.06;5600357;31;34315;-84
2022/01/01 12:22:12;;;;;;;;;;;;;;;12.36;92.28;101065.84;5598516;31;34462;-84
2022/01/01 12:25:15;;;;;;;;;;;;;;;12.41;92.51;101067.25;5601353;31;33925;-85
2022/01/01 12:28:18;;;;;;;;;;;;;;;12.36;91.85;101060.53;5600753;31;33936;-85
2022/01/01 12:31:22;;;;;;;;;;;;;;;12.42;91.76;101074.25;5602059;31;33495;-85
2022/01/01 12:34:27;;;;;;;;;;;;;;;12.26;92.03;101062.31;5601766;31;34475;-85
2022/01/01 12:37:36;;;;;;;;;;;;;;;12.22;92.22;101063.53;5601605;31;34436;-86
2022/01/01 12:40:40;;;;;;;;;;;;;;;12.20;92.14;101076.12;5600583;31;34037;-85
2022/01/01 12:43:52;;;;;;;;;;;;;;;12.24;91.99;101066.91;5602693;31;34931;-85
2022/01/01 12:47:01;;;;;;;;;;;;;;;12.19;92.23;101079.75;5598479;31;34081;-84
2022/01/01 12:50:05;;;;;;;;;;;;;;;12.23;92.26;101072.34;5602170;31;34712;-85
2022/01/01 12:53:09;;;;;;;;;;;;;;;12.15;92.38;101078.31;5600625;31;32369;-85
2022/01/01 12:56:13;;;;;;;;;;;;;;;12.21;92.25;101069.84;5599037;31;33558;-85
2022/01/01 12:59:16;;;;;;;;;;;;;;;12.22;92.13;101076.81;5600734;31;33709;-86
2022/01/01 13:02:19;;;;;;;;;;;;;;;12.12;92.53;101082.09;5602440;31;34428;-85
2022/01/01 13:05:23;;;;;;;;;;;;;;;12.15;92.71;101088.94;5601450;31;34020;-85
2022/01/01 13:08:25;;;;;;;;;;;;;;;12.23;92.54;101099.72;5599993;31;33895;-85
2022/01/01 13:11:28;;;;;;;;;;;;;;;12.12;93.18;101097.16;5604616;31;33844;-85
2022/01/01 13:14:34;;;;;;;;;;;;;;;12.14;93.24;101097.84;5602435;31;34098;-84
2022/01/01 13:17:39;;;;;;;;;;;;;;;12.13;93.59;101097.03;5601807;31;33785;-84
2022/01/01 13:20:42;;;;;;;;;;;;;;;12.13;93.08;101104.13;5598452;31;33740;-85
2022/01/01 13:23:51;;;;;;;;;;;;;;;12.18;93.52;101105.41;5600497;31;33597;-85
2022/01/01 13:26:54;;;;;;;;;;;;;;;12.08;94.06;101093.09;5598604;31;33623;-85
2022/01/01 13:29:57;;;;;;;;;;;;;;;12.01;94.72;101100.72;5599372;31;34231;-85
2022/01/01 13:33:07;;;;;;;;;;;;;;;11.94;95.27;101111.00;5599995;31;33940;-85
2022/01/01 13:36:10;;;;;;;;;;;;;;;11.95;95.19;101110.03;5601228;31;34513;-85
2022/01/01 13:39:16;;;;;;;;;;;;;;;11.94;95.13;101113.62;5599793;31;34266;-85
2022/01/01 13:42:19;;;;;;;;;;;;;;;11.95;95.48;101115.31;5599317;31;34868;-85
2022/01/01 13:45:25;;;;;;;;;;;;;;;12.00;95.26;101114.97;5600858;31;33744;-86
2022/01/01 13:48:27;;;;;;;;;;;;;;;11.92;95.48;101110.28;5600079;31;34155;-85
2022/01/01 13:51:30;;;;;;;;;;;;;;;11.88;95.76;101109.69;5600235;31;34048;-85
2022/01/01 13:54:35;;;;;;;;;;;;;;;11.94;95.45;101104.81;5599959;31;34667;-85
2022/01/01 13:57:50;;;;;;;;;;;;;;;11.81;95.86;101108.53;5600749;31;35009;-85
2022/01/01 14:01:10;;;;;;;;;;;;;;;11.87;95.90;101118.63;5598290;31;34323;-85
2022/01/01 14:04:14;;;;;;;;;;;;;;;11.89;95.35;101121.13;5599073;31;34022;-85
2022/01/01 14:07:17;;;;;;;;;;;;;;;11.84;95.75;101121.53;5600396;31;33922;-85
2022/01/01 14:10:23;;;;;;;;;;;;;;;11.83;95.79;101116.34;5598257;31;33939;-85
2022/01/01 14:13:36;;;;;;;;;;;;;;;11.84;95.67;101118.03;5599721;31;34379;-85
2022/01/01 14:16:42;;;;;;;;;;;;;;;11.81;96.01;101115.63;5603579;31;33826;-84
2022/01/01 14:19:47;;;;;;;;;;;;;;;11.80;96.08;101121.91;5602028;31;34449;-85
2022/01/01 14:22:52;;;;;;;;;;;;;;;11.83;95.79;101121.66;5602328;31;33706;-85
2022/01/01 14:25:56;;;;;;;;;;;;;;;11.76;96.44;101125.81;5600284;31;34018;-84
2022/01/01 14:28:59;;;;;;;;;;;;;;;11.88;95.96;101130.06;5599991;31;33935;-85
2022/01/01 14:32:02;;;;;;;;;;;;;;;11.71;96.88;101140.28;5598763;31;33479;-84
2022/01/01 14:35:05;;;;;;;;;;;;;;;11.73;97.03;101142.78;5597534;31;33975;-85
2022/01/01 14:38:09;;;;;;;;;;;;;;;11.77;96.69;101141.56;5599649;31;33901;-85
2022/01/01 14:41:14;;;;;;;;;;;;;;;11.76;97.04;101139.88;5600517;31;33657;-85
2022/01/01 14:44:20;;;;;;;;;;;;;;;11.70;97.23;101156.31;5599936;31;34858;-85
2022/01/01 14:47:26;;;;;;;;;;;;;;;11.66;97.60;101153.06;5598691;31;34962;-85
2022/01/01 14:50:34;;;;;;;;;;;;;;;11.62;98.06;101156.09;5597751;31;34664;-85
2022/01/01 14:53:59;;;;;;;;;;;;;;;11.54;98.76;101159.41;5600298;31;33389;-85
2022/01/01 14:57:14;;;;;;;;;;;;;;;11.52;98.97;101156.84;5597082;31;33585;-85
2022/01/01 15:00:19;;;;;;;;;;;;;;;11.53;99.10;101166.50;5599833;31;33851;-85
2022/01/01 15:03:21;;;;;;;;;;;;;;;11.55;99.02;101166.34;5597026;31;33812;-85
2022/01/01 15:06:25;;;;;;;;;;;;;;;11.49;99.68;101174.81;5596606;31;33881;-85
2022/01/01 15:09:30;;;;;;;;;;;;;;;11.47;100.00;101174.09;5596851;31;34282;-85
2022/01/01 15:12:34;;;;;;;;;;;;;;;11.38;100.00;101173.03;5597631;31;34763;-85
2022/01/01 15:15:38;;;;;;;;;;;;;;;11.33;100.00;101181.38;5597613;31;34461;-85
2022/01/01 15:18:42;;;;;;;;;;;;;;;11.36;100.00;101180.28;5597528;31;33813;-85
2022/01/01 15:22:02;;;;;;;;;;;;;;;11.40;100.00;101190.50;5598652;31;34068;-85
2022/01/01 15:25:08;;;;;;;;;;;;;;;11.33;100.00;101189.31;5597029;31;35009;-85
2022/01/01 15:28:11;;;;;;;;;;;;;;;11.30;100.00;101189.59;5597409;31;34863;-85
2022/01/01 15:31:25;;;;;;;;;;;;;;;11.25;100.00;101197.03;5598186;31;34115;-85
2022/01/01 15:34:28;;;;;;;;;;;;;;;11.20;100.00;101188.66;5597219;31;33768;-85
2022/01/01 15:37:34;;;;;;;;;;;;;;;11.22;100.00;101184.03;5596900;31;33903;-85
2022/01/01 15:40:54;;;;;;;;;;;;;;;11.30;100.00;101200.19;5598028;31;34803;-85
2022/01/01 15:43:57;;;;;;;;;;;;;;;11.16;100.00;101192.50;5599115;31;34864;-85
2022/01/01 15:47:00;;;;;;;;;;;;;;;11.17;100.00;101191.53;5600450;31;33668;-85
2022/01/01 15:50:04;;;;;;;;;;;;;;;11.17;100.00;101188.88;5599050;31;33594;-86
2022/01/01 15:53:15;;;;;;;;;;;;;;;11.22;100.00;101203.44;5601662;31;33900;-85